Strona główna
METAR-TAF:

METAR-TAF

Lotnisko :

Szawle, Litwa

Port lotniczy Szawle

Szerokość geograficzna: 55-53-38N, Długość geograficzna: 023-23-42E, wysokość: 135 m

Aktualna obserwacja pogody

Raport powstał 22 minut temu, godzina 01:20 UTC
Wiatr 5 kt od północ
Temperatura -18°C
Wilgotność 92%
Ciśnienie 1032 hPa
Widzialność 10 km lub więcej

METAR: EYSA 250120Z AUTO 01005KT 9999NDV NCD M18/M19 Q1032 R32R/29//95 R32L/490191

czas: 03:42 (01:42 UTC)

Prognoza

Raport powstał 2 godziny i 40 minut temu, godzina 23:02 UTC
Prognoza ważna od 25 godzina 00 UTC do 25 godzina 09 UTC
Wiatr 6 kt od północ
Widzialność: 9000 m
Przerywane chmury na wysokości 1500 ft
Przejściowo
od 25 godzina 00 UTC do 25 godzina 06 UTC
Rozproszone chmury na wysokości 500 ft

TAF: EYSA 242302Z 2500/2509 01006KT 9000 BKN015 TEMPO 2500/2506 SCT005

Obserwacja i prognoza pogody dla ponad 4000 lotnisk (raport METAR i TAF).

Dostępne stacje oznaczono żółtymi i czerwonymi punktami na mapie.

Najedź kursorem aby zobaczyć nazwę stacji.

Kliknij aby zobaczyć obserwacje i prognozy pogody.

Aby zmienić mapę: kliknij na zielony przycisk z czarnym krzyżykiem, aby powiększyć; na zielony przycisk z myślnikiem, aby pomniejszyć; na zielone strzałki, aby przejść do map sąsiednich.


METAR-TAF: